Time;durP1;ratioP1;P1;durP2;ratioP2;P2;SDS_P1;SDS_P2;PMS_P1;PMS_P2;Temp;Humidity;BMP_temperature;BMP_pressure;BME280_temperature;BME280_humidity;BME280_pressure;Samples;Min_cycle;Max_cycle;Signal;HPM_P1;HPM_P2
2023/09/26 00:01:29;;;;;;;13.23;10.40;;;;;;;19.50;100.00;96807.16;5038518;28;20021;-78
2023/09/26 00:03:55;;;;;;;13.10;11.63;;;;;;;19.34;100.00;96802.19;5033464;28;20075;-78
2023/09/26 00:06:22;;;;;;;15.63;12.13;;;;;;;19.52;100.00;96806.97;5020561;28;20030;-79
2023/09/26 00:08:52;;;;;;;14.70;10.60;;;;;;;19.38;100.00;96789.28;5013061;28;20594;-78
2023/09/26 00:11:17;;;;;;;13.73;10.87;;;;;;;19.19;100.00;96804.19;5014734;28;20112;-78
2023/09/26 00:13:43;;;;;;;14.47;11.50;;;;;;;19.19;100.00;96786.34;5012715;28;20167;-78
2023/09/26 00:16:10;;;;;;;17.17;12.10;;;;;;;19.26;100.00;96795.19;5018356;28;20029;-78
2023/09/26 00:18:35;;;;;;;14.83;11.60;;;;;;;19.52;100.00;96789.13;5012219;28;20094;-78
2023/09/26 00:21:01;;;;;;;14.33;11.70;;;;;;;19.82;100.00;96778.13;5014823;28;20025;-78
2023/09/26 00:23:26;;;;;;;14.53;12.07;;;;;;;19.61;100.00;96783.59;5031985;28;20388;-78
2023/09/26 00:25:52;;;;;;;11.67;10.47;;;;;;;19.53;100.00;96779.28;5021347;28;20029;-78
2023/09/26 00:28:18;;;;;;;13.60;11.03;;;;;;;19.58;100.00;96781.31;5037813;28;20028;-78
2023/09/26 00:30:43;;;;;;;14.70;11.13;;;;;;;19.91;100.00;96776.88;5029735;28;20025;-78
2023/09/26 00:33:09;;;;;;;14.90;10.40;;;;;;;20.06;100.00;96776.69;5034302;28;20017;-78
2023/09/26 00:35:35;;;;;;;13.67;10.70;;;;;;;20.17;100.00;96776.06;5035349;28;20037;-78
2023/09/26 00:38:00;;;;;;;13.33;10.93;;;;;;;20.10;100.00;96774.41;5033806;28;20037;-79
2023/09/26 00:40:28;;;;;;;21.50;12.77;;;;;;;19.97;100.00;96776.06;5017563;28;20037;-78
2023/09/26 00:42:53;;;;;;;15.60;11.13;;;;;;;19.51;100.00;96771.44;5017107;28;20025;-78
2023/09/26 00:45:19;;;;;;;12.60;10.70;;;;;;;19.41;100.00;96783.53;5017563;28;20025;-78
2023/09/26 00:47:46;;;;;;;13.70;11.83;;;;;;;19.38;100.00;96778.59;5021894;28;20095;-78
2023/09/26 00:50:16;;;;;;;16.03;12.17;;;;;;;19.35;100.00;96776.34;5040441;28;20450;-78
2023/09/26 00:52:45;;;;;;;14.50;12.43;;;;;;;19.25;100.00;96779.41;5036784;28;20491;-78
2023/09/26 00:55:14;;;;;;;14.87;11.10;;;;;;;19.13;100.00;96779.16;5038882;28;20033;-78
2023/09/26 00:57:40;;;;;;;15.87;11.77;;;;;;;19.57;100.00;96769.00;5039142;28;20025;-78
2023/09/26 01:00:07;;;;;;;18.83;12.23;;;;;;;19.45;100.00;96772.28;5016767;28;20044;-79
2023/09/26 01:02:32;;;;;;;16.13;11.27;;;;;;;19.46;100.00;96778.44;5032004;28;20034;-78
2023/09/26 01:04:59;;;;;;;18.23;11.90;;;;;;;19.53;100.00;96773.94;5022680;28;20033;-78
2023/09/26 01:07:26;;;;;;;12.97;11.40;;;;;;;19.58;100.00;96770.66;5034935;28;20063;-78
2023/09/26 01:09:53;;;;;;;13.83;11.23;;;;;;;19.54;100.00;96771.03;5025130;28;20021;-78
2023/09/26 01:12:20;;;;;;;16.03;11.60;;;;;;;19.46;100.00;96773.09;5032761;28;20025;-78
2023/09/26 01:14:46;;;;;;;15.87;11.17;;;;;;;19.69;100.00;96772.75;5034437;28;20373;-78
2023/09/26 01:17:12;;;;;;;14.03;11.23;;;;;;;19.78;100.00;96771.53;5038345;28;20068;-78
2023/09/26 01:19:38;;;;;;;14.93;11.67;;;;;;;19.53;100.00;96774.75;5019772;28;20031;-78
2023/09/26 01:22:04;;;;;;;16.67;12.27;;;;;;;19.64;100.00;96776.03;5034476;28;20057;-78
2023/09/26 01:24:30;;;;;;;16.13;14.43;;;;;;;19.25;100.00;96771.41;5041604;28;20461;-79
2023/09/26 01:26:55;;;;;;;18.73;14.43;;;;;;;19.31;100.00;96765.25;5014076;28;20035;-78
2023/09/26 01:29:21;;;;;;;16.37;13.60;;;;;;;19.38;100.00;96760.75;5024540;28;20032;-78
2023/09/26 01:31:46;;;;;;;17.03;14.80;;;;;;;19.30;100.00;96764.44;5033891;28;20029;-78
2023/09/26 01:34:12;;;;;;;17.67;12.47;;;;;;;19.31;100.00;96758.09;5032582;28;20051;-79
2023/09/26 01:36:38;;;;;;;14.40;12.53;;;;;;;19.19;100.00;96761.53;5030969;28;20031;-79
2023/09/26 01:39:05;;;;;;;14.57;12.50;;;;;;;19.31;100.00;96757.25;5013842;28;20400;-78
2023/09/26 01:41:31;;;;;;;17.77;11.50;;;;;;;19.18;100.00;96752.72;5029927;28;20117;-78
2023/09/26 01:43:57;;;;;;;14.93;12.00;;;;;;;19.07;100.00;96759.44;5030552;28;20033;-79
2023/09/26 01:46:22;;;;;;;13.23;11.17;;;;;;;18.81;100.00;96749.50;5013626;28;20044;-78
2023/09/26 01:48:48;;;;;;;14.73;11.73;;;;;;;18.74;100.00;96753.16;5017351;28;20025;-78
2023/09/26 01:51:14;;;;;;;12.77;10.77;;;;;;;18.51;100.00;96759.56;5014121;28;20028;-78
2023/09/26 01:53:41;;;;;;;12.47;11.00;;;;;;;18.54;100.00;96748.53;5014760;28;20021;-78
2023/09/26 01:56:06;;;;;;;13.20;11.27;;;;;;;18.64;100.00;96750.81;5031177;28;20033;-78
2023/09/26 01:58:32;;;;;;;13.83;10.93;;;;;;;18.67;100.00;96741.59;5019595;28;20395;-79
2023/09/26 02:00:58;;;;;;;14.47;11.70;;;;;;;18.50;100.00;96743.78;5016461;28;20029;-79
2023/09/26 02:03:24;;;;;;;15.77;12.40;;;;;;;18.52;100.00;96750.56;5014300;28;20476;-79
2023/09/26 02:05:49;;;;;;;13.33;11.40;;;;;;;18.64;100.00;96750.81;5040778;28;20067;-78
2023/09/26 02:08:16;;;;;;;14.33;11.53;;;;;;;18.67;100.00;96742.44;5013671;28;20025;-79
2023/09/26 02:10:42;;;;;;;13.67;11.00;;;;;;;18.67;100.00;96749.59;5030419;28;20119;-79
2023/09/26 02:13:08;;;;;;;13.93;11.37;;;;;;;18.54;100.00;96751.19;5014262;28;20045;-78
2023/09/26 02:15:37;;;;;;;14.53;11.70;;;;;;;18.69;100.00;96756.38;5015458;28;20021;-79
2023/09/26 02:18:03;;;;;;;13.50;10.47;;;;;;;18.78;100.00;96762.41;5011492;28;20121;-79
2023/09/26 02:20:29;;;;;;;15.73;11.87;;;;;;;18.59;100.00;96767.41;5004176;28;20499;-79
2023/09/26 02:22:58;;;;;;;13.77;10.87;;;;;;;18.53;100.00;96768.16;5023170;28;20380;-79
2023/09/26 02:25:25;;;;;;;13.50;10.97;;;;;;;18.37;100.00;96771.97;5036078;28;20100;-79
2023/09/26 02:27:51;;;;;;;13.23;11.03;;;;;;;18.06;100.00;96774.22;5031090;28;20479;-78
2023/09/26 02:30:19;;;;;;;11.90;10.20;;;;;;;18.19;100.00;96770.81;5012614;28;20040;-79
2023/09/26 02:32:45;;;;;;;12.47;10.77;;;;;;;18.00;100.00;96773.13;5012825;28;20113;-79
2023/09/26 02:35:13;;;;;;;13.30;11.30;;;;;;;17.86;100.00;96766.06;5015966;28;20120;-79
2023/09/26 02:37:39;;;;;;;13.07;11.63;;;;;;;18.04;100.00;96769.09;5026833;28;20038;-79
2023/09/26 02:40:09;;;;;;;11.50;10.13;;;;;;;18.07;100.00;96763.34;5015277;28;20151;-79
2023/09/26 02:42:39;;;;;;;13.67;11.30;;;;;;;18.11;100.00;96764.63;5028020;28;20076;-79
2023/09/26 02:45:05;;;;;;;16.37;11.07;;;;;;;18.04;100.00;96763.75;5028407;28;20388;-79
2023/09/26 02:47:31;;;;;;;12.83;10.43;;;;;;;17.95;100.00;96761.44;5027186;28;20120;-78
2023/09/26 02:49:57;;;;;;;12.43;9.83;;;;;;;17.73;100.00;96765.91;5014124;28;20029;-79
2023/09/26 02:52:25;;;;;;;13.23;9.93;;;;;;;17.56;100.00;96758.19;5012869;28;20023;-79
2023/09/26 02:54:51;;;;;;;14.00;10.10;;;;;;;17.74;100.00;96757.75;5012076;28;20046;-78
2023/09/26 02:57:20;;;;;;;12.83;10.13;;;;;;;17.94;100.00;96752.63;5010808;28;20022;-78
2023/09/26 02:59:46;;;;;;;12.40;9.83;;;;;;;18.02;100.00;96759.66;5030304;28;20032;-79
2023/09/26 03:02:12;;;;;;;13.43;11.00;;;;;;;18.24;100.00;96752.41;5012479;28;20029;-79
2023/09/26 03:04:39;;;;;;;11.47;9.50;;;;;;;18.00;100.00;96751.03;5012221;28;20108;-78
2023/09/26 03:07:05;;;;;;;12.00;9.30;;;;;;;17.77;100.00;96751.25;5015079;28;20053;-78
2023/09/26 03:09:31;;;;;;;14.27;10.10;;;;;;;17.87;100.00;96754.38;5014708;28;20376;-78
2023/09/26 03:11:57;;;;;;;12.57;10.07;;;;;;;17.95;100.00;96751.59;5027338;28;20119;-78
2023/09/26 03:14:23;;;;;;;14.20;11.03;;;;;;;17.71;100.00;96752.81;5031000;28;20029;-78
2023/09/26 03:16:48;;;;;;;13.47;11.10;;;;;;;17.56;100.00;96744.06;5010447;28;20028;-78
2023/09/26 03:19:16;;;;;;;14.27;11.87;;;;;;;17.68;100.00;96753.19;5030012;28;20730;-78
2023/09/26 03:21:42;;;;;;;14.73;11.83;;;;;;;17.66;100.00;96756.03;5011317;28;20070;-78
2023/09/26 03:24:08;;;;;;;13.87;11.40;;;;;;;17.80;100.00;96756.19;5033577;28;20064;-78
2023/09/26 03:26:34;;;;;;;16.07;12.77;;;;;;;17.74;100.00;96757.75;5010710;28;20017;-78
2023/09/26 03:28:59;;;;;;;19.53;14.00;;;;;;;17.66;100.00;96757.88;5026607;28;20028;-78
2023/09/26 03:31:25;;;;;;;17.23;13.70;;;;;;;17.53;100.00;96753.25;5009896;28;22619;-78
2023/09/26 03:33:50;;;;;;;16.63;13.67;;;;;;;17.89;100.00;96752.38;5015103;28;20025;-78
2023/09/26 03:36:17;;;;;;;15.87;13.47;;;;;;;18.13;100.00;96754.59;5030019;28;20238;-78
2023/09/26 03:38:43;;;;;;;15.23;11.67;;;;;;;17.87;100.00;96752.59;5024716;28;20175;-78
2023/09/26 03:41:08;;;;;;;13.97;11.37;;;;;;;17.96;100.00;96755.09;5027757;28;20033;-78
2023/09/26 03:43:34;;;;;;;16.37;11.60;;;;;;;17.78;100.00;96750.25;5038314;28;20032;-78
2023/09/26 03:46:02;;;;;;;17.30;11.27;;;;;;;17.95;100.00;96750.78;5027018;28;20025;-78
2023/09/26 03:48:28;;;;;;;14.03;11.33;;;;;;;17.96;100.00;96755.91;5029399;28;20033;-78
2023/09/26 03:51:15;;;;;;;14.77;11.87;;;;;;;18.12;100.00;96754.81;5021971;28;20033;-78
2023/09/26 03:53:41;;;;;;;13.93;12.20;;;;;;;17.74;100.00;96747.13;5018355;28;20064;-78
2023/09/26 03:56:08;;;;;;;15.10;11.50;;;;;;;17.52;100.00;96750.78;5031890;28;20033;-78
2023/09/26 03:58:34;;;;;;;13.80;12.20;;;;;;;17.77;100.00;96752.09;5031356;28;20056;-78
2023/09/26 04:01:10;;;;;;;16.90;12.43;;;;;;;17.82;100.00;96752.31;5016849;28;20033;-78
2023/09/26 04:03:39;;;;;;;15.80;12.43;;;;;;;18.01;100.00;96750.84;5014011;28;20487;-78
2023/09/26 04:06:05;;;;;;;15.17;12.80;;;;;;;17.83;100.00;96753.13;5016208;28;20022;-78
2023/09/26 04:08:31;;;;;;;19.17;13.87;;;;;;;17.83;100.00;96755.81;5014750;28;21183;-78
2023/09/26 04:10:57;;;;;;;18.07;12.57;;;;;;;17.56;100.00;96750.22;5022512;28;20044;-78
2023/09/26 04:13:23;;;;;;;17.07;13.20;;;;;;;17.88;100.00;96756.06;5017315;28;20044;-78
2023/09/26 04:15:49;;;;;;;16.60;12.53;;;;;;;17.71;100.00;96754.66;5034631;28;20079;-78
2023/09/26 04:18:30;;;;;;;14.27;12.17;;;;;;;17.40;100.00;96745.13;5035513;28;20041;-78
2023/09/26 04:20:56;;;;;;;15.53;12.00;;;;;;;17.83;100.00;96739.84;5015805;28;20024;-79
2023/09/26 04:23:22;;;;;;;17.17;12.97;;;;;;;18.04;100.00;96746.94;5028441;28;20549;-78
2023/09/26 04:25:48;;;;;;;14.83;11.37;;;;;;;17.87;100.00;96736.63;5040025;28;20636;-78
2023/09/26 04:28:13;;;;;;;13.77;11.43;;;;;;;18.21;100.00;96737.69;5016780;28;20502;-78
2023/09/26 04:30:40;;;;;;;14.50;11.53;;;;;;;17.92;100.00;96743.19;5018138;28;20017;-78
2023/09/26 04:33:08;;;;;;;13.57;11.00;;;;;;;17.92;100.00;96737.88;5033578;28;20080;-78
2023/09/26 04:35:35;;;;;;;15.43;10.93;;;;;;;17.80;100.00;96729.56;5026810;28;20021;-78
2023/09/26 04:38:00;;;;;;;18.30;11.40;;;;;;;17.72;100.00;96743.00;5032968;28;20028;-78
2023/09/26 04:40:26;;;;;;;14.60;11.87;;;;;;;17.67;100.00;96736.41;5032988;28;20104;-78
2023/09/26 04:42:52;;;;;;;15.63;11.87;;;;;;;17.94;100.00;96727.84;5033493;28;20104;-78
2023/09/26 04:45:17;;;;;;;13.80;11.13;;;;;;;17.16;100.00;96733.84;5050617;28;20030;-78
2023/09/26 04:47:43;;;;;;;14.97;12.40;;;;;;;16.85;100.00;96735.97;5032592;28;20021;-78
2023/09/26 04:50:09;;;;;;;14.67;12.83;;;;;;;17.02;100.00;96734.72;5041359;28;20029;-78
2023/09/26 04:52:38;;;;;;;15.43;12.63;;;;;;;16.80;100.00;96738.34;5036798;28;20028;-78
2023/09/26 04:55:05;;;;;;;17.07;11.97;;;;;;;16.83;100.00;96736.13;5032395;28;20059;-78
2023/09/26 04:57:30;;;;;;;15.73;12.90;;;;;;;16.91;100.00;96736.03;5032755;28;20025;-78
2023/09/26 04:59:56;;;;;;;17.07;13.57;;;;;;;17.02;100.00;96732.06;5032776;28;20025;-78
2023/09/26 05:02:21;;;;;;;17.90;12.77;;;;;;;16.58;100.00;96729.47;5016705;28;20021;-78
2023/09/26 05:04:48;;;;;;;20.53;13.53;;;;;;;16.53;100.00;96729.19;5037819;28;20026;-78
2023/09/26 05:07:14;;;;;;;17.63;15.30;;;;;;;16.54;100.00;96734.34;5034941;28;20499;-78
2023/09/26 05:09:40;;;;;;;16.17;12.43;;;;;;;16.36;100.00;96741.81;5027312;28;20021;-78
2023/09/26 05:12:06;;;;;;;19.10;14.07;;;;;;;16.22;100.00;96736.31;5018484;28;20028;-78
2023/09/26 05:14:32;;;;;;;18.40;13.60;;;;;;;16.42;100.00;96741.91;5030405;28;20475;-77
2023/09/26 05:16:57;;;;;;;19.43;14.67;;;;;;;16.18;100.00;96737.72;5030573;28;20037;-77
2023/09/26 05:19:23;;;;;;;18.53;14.83;;;;;;;16.60;100.00;96735.41;5031639;28;20364;-78
2023/09/26 05:21:48;;;;;;;20.80;16.33;;;;;;;16.75;100.00;96738.91;5034191;28;20513;-77
2023/09/26 05:24:14;;;;;;;22.20;17.60;;;;;;;16.60;100.00;96744.22;5027075;28;20033;-77
2023/09/26 05:26:39;;;;;;;18.03;15.00;;;;;;;16.57;100.00;96741.94;5037533;28;20025;-77
2023/09/26 05:29:05;;;;;;;17.40;14.13;;;;;;;16.75;100.00;96741.56;5044411;28;20541;-77
2023/09/26 05:31:31;;;;;;;16.63;13.90;;;;;;;16.94;100.00;96742.81;5040584;28;20037;-78
2023/09/26 05:33:57;;;;;;;18.33;14.47;;;;;;;16.65;100.00;96741.81;5049041;28;20055;-77
2023/09/26 05:36:23;;;;;;;16.47;13.33;;;;;;;16.51;100.00;96742.66;5037934;28;20025;-77
2023/09/26 05:38:49;;;;;;;18.90;13.87;;;;;;;17.12;100.00;96745.06;5050370;28;20094;-77
2023/09/26 05:41:14;;;;;;;17.13;14.30;;;;;;;17.63;100.00;96735.13;5032262;28;20017;-77
2023/09/26 05:43:40;;;;;;;16.63;13.83;;;;;;;17.84;100.00;96741.47;5032831;28;20104;-78
2023/09/26 05:46:06;;;;;;;19.60;13.67;;;;;;;17.91;100.00;96742.38;5027922;28;20033;-78
2023/09/26 05:48:31;;;;;;;15.47;12.63;;;;;;;18.05;100.00;96738.78;5046778;28;20471;-78
2023/09/26 05:50:59;;;;;;;15.67;12.83;;;;;;;18.24;100.00;96731.13;5034584;28;20036;-78
2023/09/26 05:53:25;;;;;;;19.37;12.70;;;;;;;18.48;100.00;96737.84;5035570;28;20021;-78
2023/09/26 05:55:53;;;;;;;16.00;12.30;;;;;;;18.68;100.00;96738.75;5030239;28;20029;-77
2023/09/26 05:58:19;;;;;;;14.13;10.90;;;;;;;18.77;100.00;96744.75;5032323;28;20021;-78
2023/09/26 06:00:46;;;;;;;13.10;11.60;;;;;;;19.06;100.00;96733.00;5015881;28;20024;-77
2023/09/26 06:03:14;;;;;;;11.43;9.50;;;;;;;19.33;100.00;96733.06;5030925;28;20426;-77
2023/09/26 06:05:40;;;;;;;14.63;11.33;;;;;;;19.77;100.00;96729.84;5030960;28;20028;-78
2023/09/26 06:08:06;;;;;;;11.83;10.30;;;;;;;20.16;100.00;96736.22;5027328;28;20518;-78
2023/09/26 06:10:31;;;;;;;15.63;10.23;;;;;;;19.99;100.00;96743.84;5032317;28;20087;-78
2023/09/26 06:12:57;;;;;;;13.07;10.40;;;;;;;20.24;100.00;96738.66;5036077;28;20033;-78
2023/09/26 06:15:23;;;;;;;12.57;9.53;;;;;;;20.18;100.00;96742.16;5042448;28;20017;-78
2023/09/26 06:17:48;;;;;;;11.83;9.00;;;;;;;21.22;98.53;96735.06;5019904;28;20025;-79
2023/09/26 06:20:14;;;;;;;12.53;8.90;;;;;;;21.30;100.00;96741.00;5032192;28;20028;-78
2023/09/26 06:22:39;;;;;;;11.00;9.37;;;;;;;20.98;100.00;96728.59;5035338;28;20021;-79
2023/09/26 06:25:05;;;;;;;12.03;8.93;;;;;;;20.25;100.00;96729.59;5031817;28;20067;-80
2023/09/26 06:27:38;;;;;;;10.97;8.93;;;;;;;20.17;100.00;96740.53;5012029;28;20112;-80
2023/09/26 06:30:05;;;;;;;12.77;8.77;;;;;;;21.12;100.00;96736.34;5028702;28;20564;-79
2023/09/26 06:32:31;;;;;;;13.60;9.00;;;;;;;21.00;100.00;96737.25;5020156;28;20021;-79
2023/09/26 06:34:59;;;;;;;12.57;10.10;;;;;;;20.65;100.00;96738.38;5032799;28;20055;-79
2023/09/26 06:37:24;;;;;;;11.77;8.50;;;;;;;21.00;100.00;96737.25;5034900;28;20035;-79
2023/09/26 06:39:50;;;;;;;12.67;9.33;;;;;;;21.20;100.00;96732.63;5018971;28;20554;-79
2023/09/26 06:42:16;;;;;;;11.23;9.07;;;;;;;21.91;100.00;96733.41;5039375;28;20017;-79
2023/09/26 06:44:41;;;;;;;10.90;7.93;;;;;;;21.11;100.00;96736.56;5040466;28;20024;-79
2023/09/26 06:47:07;;;;;;;12.27;10.03;;;;;;;21.35;100.00;96735.84;5033924;28;20033;-79
2023/09/26 06:49:34;;;;;;;10.73;8.57;;;;;;;22.31;96.22;96737.41;5036863;28;20617;-79
2023/09/26 06:52:00;;;;;;;12.07;9.07;;;;;;;22.63;100.00;96721.19;5036141;28;20105;-79
2023/09/26 06:54:25;;;;;;;13.60;7.93;;;;;;;22.58;95.25;96721.03;5030124;28;20021;-79
2023/09/26 06:56:51;;;;;;;12.87;9.33;;;;;;;22.80;92.31;96724.94;5031356;28;20018;-79
2023/09/26 06:59:18;;;;;;;13.32;8.65;;;;;;;23.46;89.65;96722.44;5033824;28;20033;-79
2023/09/26 07:01:43;;;;;;;13.32;8.65;;;;;;;24.11;81.04;96721.63;5029614;28;20502;-79
2023/09/26 07:04:14;;;;;;;12.88;9.88;;;;;;;22.56;98.55;96721.25;5020095;28;20025;-79
2023/09/26 07:06:45;;;;;;;13.57;8.85;;;;;;;22.36;96.05;96731.38;5011841;28;20021;-79
2023/09/26 07:09:12;;;;;;;11.50;8.95;;;;;;;24.04;89.80;96721.75;5025806;28;20497;-79
2023/09/26 07:11:41;;;;;;;11.40;8.40;;;;;;;25.03;77.30;96718.28;5020429;28;20491;-79
2023/09/26 07:14:07;;;;;;;9.82;7.55;;;;;;;24.92;78.66;96717.25;5014890;28;20148;-79
2023/09/26 07:16:33;;;;;;;9.90;7.72;;;;;;;25.53;74.29;96728.41;5014640;28;20022;-79
2023/09/26 07:19:00;;;;;;;11.65;7.72;;;;;;;24.52;80.21;96726.09;5022437;28;20459;-79
2023/09/26 07:21:26;;;;;;;11.18;7.78;;;;;;;26.07;71.72;96720.72;5038983;28;20013;-80
2023/09/26 07:23:51;;;;;;;12.07;8.73;;;;;;;24.10;84.67;96726.19;5030147;28;20545;-80
2023/09/26 07:26:18;;;;;;;11.65;8.82;;;;;;;24.07;89.68;96725.84;5026317;28;20024;-80
2023/09/26 07:28:44;;;;;;;12.10;9.70;;;;;;;24.41;93.12;96737.66;5014632;28;20021;-80
2023/09/26 07:31:15;;;;;;;15.13;11.23;;;;;;;25.69;77.00;96724.06;5036357;28;20071;-80
2023/09/26 07:33:42;;;;;;;15.02;10.55;;;;;;;25.30;79.61;96729.31;5031244;28;20022;-80
2023/09/26 07:36:09;;;;;;;14.57;10.82;;;;;;;26.46;71.43;96726.13;5022417;28;20030;-80
2023/09/26 07:38:34;;;;;;;13.07;10.63;;;;;;;26.82;68.36;96719.34;5038515;28;20032;-80
2023/09/26 07:41:01;;;;;;;12.60;8.68;;;;;;;27.61;63.32;96726.22;5027332;28;20021;-80
2023/09/26 07:43:29;;;;;;;9.25;7.75;;;;;;;28.38;60.79;96719.56;5018924;28;20052;-80
2023/09/26 07:46:06;;;;;;;14.02;9.65;;;;;;;28.12;59.30;96726.66;5014338;28;20031;-80
2023/09/26 07:48:34;;;;;;;11.05;7.60;;;;;;;28.92;56.54;96723.94;5027174;28;20029;-80
2023/09/26 07:51:00;;;;;;;11.48;8.43;;;;;;;28.92;56.67;96726.63;5030624;28;20022;-80
2023/09/26 07:53:25;;;;;;;10.77;8.35;;;;;;;29.19;53.55;96724.59;5024286;28;20025;-80
2023/09/26 07:55:51;;;;;;;10.13;7.53;;;;;;;29.93;52.57;96728.00;5017221;28;20021;-80
2023/09/26 07:58:17;;;;;;;8.52;6.00;;;;;;;30.85;51.44;96720.59;5029166;28;20037;-80
2023/09/26 08:00:43;;;;;;;10.00;6.97;;;;;;;30.00;51.33;96723.13;5012390;28;20028;-79
2023/09/26 08:03:09;;;;;;;9.25;6.97;;;;;;;30.55;50.49;96721.47;5040572;28;20032;-80
2023/09/26 08:05:35;;;;;;;8.93;6.22;;;;;;;30.62;50.44;96719.28;5031040;28;20017;-80
2023/09/26 08:08:04;;;;;;;10.27;7.38;;;;;;;30.76;49.92;96719.53;5013123;28;20029;-81
2023/09/26 08:10:37;;;;;;;8.88;6.90;;;;;;;30.59;49.05;96719.81;5019520;28;20112;-80
2023/09/26 08:13:03;;;;;;;9.20;6.68;;;;;;;30.63;50.81;96715.47;5022478;28;20104;-80
2023/09/26 08:15:31;;;;;;;8.15;6.40;;;;;;;31.76;47.73;96713.06;5028581;28;20108;-81
2023/09/26 08:18:03;;;;;;;9.25;6.63;;;;;;;31.66;45.90;96711.22;5014223;28;20045;-81
2023/09/26 08:20:28;;;;;;;9.48;6.50;;;;;;;31.40;48.79;96712.47;5045582;28;20022;-81
2023/09/26 08:22:54;;;;;;;8.70;6.68;;;;;;;32.03;45.67;96709.06;5036661;28;20024;-80
2023/09/26 08:25:24;;;;;;;8.27;6.88;;;;;;;31.80;46.39;96710.59;5012751;28;20476;-81
2023/09/26 08:27:50;;;;;;;8.50;6.85;;;;;;;32.21;44.33;96723.88;5030108;28;20021;-81
2023/09/26 08:30:15;;;;;;;8.32;6.72;;;;;;;32.69;44.79;96710.34;5016959;28;20160;-81
2023/09/26 08:32:42;;;;;;;9.43;6.70;;;;;;;31.94;45.16;96706.13;5027405;28;20029;-80
2023/09/26 08:35:11;;;;;;;6.93;5.50;;;;;;;33.24;44.04;96710.78;5035289;28;20036;-80
2023/09/26 08:37:38;;;;;;;10.30;6.82;;;;;;;31.74;46.65;96717.16;5016339;28;20187;-81
2023/09/26 08:40:05;;;;;;;6.93;5.55;;;;;;;32.82;45.10;96712.38;5031468;28;20372;-81
2023/09/26 08:42:36;;;;;;;9.50;5.65;;;;;;;33.82;42.99;96704.25;5037879;28;20111;-81
2023/09/26 08:45:03;;;;;;;8.07;5.30;;;;;;;33.98;41.94;96714.63;5028757;28;20033;-80
2023/09/26 08:47:29;;;;;;;8.25;5.75;;;;;;;34.40;41.14;96709.28;5020571;28;20029;-81
2023/09/26 08:49:56;;;;;;;7.15;5.10;;;;;;;34.72;39.36;96713.91;5026720;28;20040;-81
2023/09/26 08:52:23;;;;;;;9.88;6.20;;;;;;;33.30;41.43;96715.06;5016882;28;20026;-81
2023/09/26 08:54:49;;;;;;;9.07;7.30;;;;;;;32.66;43.79;96717.16;5017291;28;20017;-81
2023/09/26 08:57:16;;;;;;;7.40;5.90;;;;;;;33.38;42.82;96710.88;5035478;28;20040;-81
2023/09/26 08:59:44;;;;;;;7.97;5.93;;;;;;;33.57;40.38;96709.00;5033753;28;20022;-81
2023/09/26 09:02:11;;;;;;;8.63;6.50;;;;;;;33.53;42.19;96710.66;5037892;28;20600;-81
2023/09/26 09:04:42;;;;;;;8.93;5.90;;;;;;;34.43;40.20;96716.88;5014342;28;20053;-81
2023/09/26 09:07:08;;;;;;;9.43;6.45;;;;;;;33.72;39.65;96708.75;5016571;28;20018;-81
2023/09/26 09:09:34;;;;;;;9.18;6.75;;;;;;;31.73;42.96;96715.53;5028800;28;20028;-81
2023/09/26 09:12:00;;;;;;;7.65;5.80;;;;;;;34.18;39.75;96709.97;5036446;28;20022;-81
2023/09/26 09:14:33;;;;;;;8.35;5.88;;;;;;;34.17;39.17;96711.03;5018246;28;20659;-81
2023/09/26 09:16:59;;;;;;;9.48;6.95;;;;;;;34.14;38.16;96717.09;5035363;28;20102;-81
2023/09/26 09:19:48;;;;;;;11.27;7.18;;;;;;;35.78;35.86;96696.38;5034956;28;20025;-81
2023/09/26 09:22:21;;;;;;;7.78;5.97;;;;;;;36.11;36.29;96696.09;5018569;28;20079;-81
2023/09/26 09:24:56;;;;;;;10.52;7.70;;;;;;;34.91;37.76;96708.31;5024518;28;20519;-81
2023/09/26 09:27:38;;;;;;;8.15;7.03;;;;;;;34.26;38.09;96709.25;5025902;28;20076;-81
2023/09/26 09:30:15;;;;;;;10.98;8.30;;;;;;;34.22;38.59;96705.50;5027961;28;20021;-81
2023/09/26 09:32:41;;;;;;;11.15;7.75;;;;;;;34.37;37.16;96705.22;5032669;28;20495;-81
2023/09/26 09:35:13;;;;;;;9.40;6.63;;;;;;;34.69;37.44;96698.94;5032755;28;20040;-81
2023/09/26 09:37:47;;;;;;;12.05;8.43;;;;;;;33.77;38.67;96705.13;5032726;28;20391;-81
2023/09/26 09:40:20;;;;;;;9.00;7.72;;;;;;;33.19;40.05;96697.22;5016451;28;20030;-81
2023/09/26 09:42:55;;;;;;;9.48;6.75;;;;;;;34.72;37.71;96692.84;5017043;28;20112;-81
2023/09/26 09:45:21;;;;;;;9.80;7.50;;;;;;;32.82;37.97;96693.31;5031374;28;20033;-79
2023/09/26 09:47:48;;;;;;;8.23;7.13;;;;;;;33.32;39.74;96691.84;5037618;28;20745;-81
2023/09/26 09:50:15;;;;;;;8.48;6.80;;;;;;;34.13;38.41;96690.94;5048061;28;20033;-81
2023/09/26 09:52:48;;;;;;;8.98;5.85;;;;;;;35.43;36.84;96676.88;5021463;28;20437;-81
2023/09/26 09:55:23;;;;;;;8.05;6.28;;;;;;;35.25;36.54;96682.53;5041793;28;20438;-81
2023/09/26 09:57:52;;;;;;;8.50;5.93;;;;;;;34.94;36.91;96683.97;5037222;28;20083;-81
2023/09/26 10:00:20;;;;;;;7.63;5.50;;;;;;;35.61;34.81;96677.06;5024067;28;20017;-81
2023/09/26 10:02:46;;;;;;;8.07;6.05;;;;;;;34.87;36.71;96677.25;5038300;28;20037;-81
2023/09/26 10:05:14;;;;;;;9.80;6.05;;;;;;;34.37;36.27;96677.91;5019581;28;20488;-81
2023/09/26 10:07:42;;;;;;;10.13;5.60;;;;;;;35.59;34.76;96674.63;5030554;28;20127;-81
2023/09/26 10:10:09;;;;;;;8.50;5.95;;;;;;;34.19;37.72;96684.28;5027395;28;20117;-81
2023/09/26 10:12:39;;;;;;;11.00;6.38;;;;;;;35.63;35.14;96670.16;5035358;28;20049;-81
2023/09/26 10:15:11;;;;;;;6.45;5.50;;;;;;;34.35;36.81;96674.69;5015960;28;20025;-81
2023/09/26 10:17:41;;;;;;;8.15;6.57;;;;;;;34.59;36.35;96666.34;5034230;28;20088;-81
2023/09/26 10:20:16;;;;;;;7.53;5.40;;;;;;;34.43;36.98;96663.06;5035301;28;20029;-80
2023/09/26 10:22:46;;;;;;;8.25;5.40;;;;;;;34.46;36.42;96667.13;5037629;28;20387;-81
2023/09/26 10:25:23;;;;;;;7.95;5.30;;;;;;;33.08;38.63;96664.66;5035563;28;20030;-81
2023/09/26 10:27:50;;;;;;;7.40;5.25;;;;;;;33.80;36.44;96674.53;5037709;28;20384;-81
2023/09/26 10:30:18;;;;;;;9.63;5.82;;;;;;;34.84;36.55;96670.47;5032955;28;20028;-81
2023/09/26 10:32:45;;;;;;;13.90;6.10;;;;;;;33.45;37.57;96665.78;5030728;28;20380;-81
2023/09/26 10:35:13;;;;;;;9.32;6.60;;;;;;;34.59;36.55;96657.34;5039844;28;20025;-81
2023/09/26 10:37:53;;;;;;;8.52;5.25;;;;;;;34.74;37.28;96654.28;5034012;28;20017;-81
2023/09/26 10:40:18;;;;;;;6.47;4.78;;;;;;;35.91;35.09;96650.88;5031582;28;20018;-81
2023/09/26 10:42:46;;;;;;;7.45;4.95;;;;;;;35.08;35.43;96658.53;5030414;28;20044;-81
2023/09/26 10:45:13;;;;;;;8.25;4.75;;;;;;;36.21;34.42;96648.50;5024528;28;20557;-81
2023/09/26 10:47:40;;;;;;;8.20;5.10;;;;;;;34.69;36.66;96657.94;5021453;28;20018;-81
2023/09/26 10:50:12;;;;;;;5.97;3.85;;;;;;;34.78;36.12;96660.00;5030085;28;20025;-81
2023/09/26 10:52:46;;;;;;;7.07;4.20;;;;;;;35.43;36.10;96655.00;5035988;28;20033;-81
2023/09/26 10:55:20;;;;;;;7.70;3.67;;;;;;;35.43;35.01;96655.00;5018868;28;20088;-81
2023/09/26 10:57:49;;;;;;;6.75;3.20;;;;;;;36.13;32.82;96652.00;5041340;28;20021;-78
2023/09/26 11:00:15;;;;;;;4.40;2.38;;;;;;;36.62;31.60;96650.97;5021146;28;20025;-78
2023/09/26 11:02:43;;;;;;;8.50;3.65;;;;;;;35.51;33.96;96649.91;5019972;28;20111;-80
2023/09/26 11:05:10;;;;;;;6.85;3.10;;;;;;;36.80;32.08;96652.63;5035562;28;20036;-81
2023/09/26 11:07:41;;;;;;;4.40;2.80;;;;;;;36.39;32.42;96643.91;5013529;28;21290;-81
2023/09/26 11:10:12;;;;;;;3.90;2.65;;;;;;;37.65;32.04;96638.56;5039349;28;20032;-79
2023/09/26 11:12:38;;;;;;;3.50;2.50;;;;;;;35.33;34.27;96651.69;5030919;28;20100;-80
2023/09/26 11:15:05;;;;;;;4.45;2.92;;;;;;;35.07;33.69;96649.53;5033523;28;20026;-79
2023/09/26 11:17:32;;;;;;;6.15;3.15;;;;;;;35.50;34.03;96646.38;5014093;28;20467;-80